sensor_id;sensor_type;location;lat;lon;timestamp;P1;durP1;ratioP1;P2;durP2;ratioP2
80392;SDS011;69719;45.544;10.218;2024-03-17T00:01:02;34.58;;;23.95;;
80392;SDS011;69719;45.544;10.218;2024-03-17T00:03:28;32.83;;;22.77;;
80392;SDS011;69719;45.544;10.218;2024-03-17T00:05:55;34.85;;;22.45;;
80392;SDS011;69719;45.544;10.218;2024-03-17T00:08:22;33.20;;;23.52;;
80392;SDS011;69719;45.544;10.218;2024-03-17T00:10:49;34.63;;;23.52;;
80392;SDS011;69719;45.544;10.218;2024-03-17T00:13:18;31.08;;;23.55;;
80392;SDS011;69719;45.544;10.218;2024-03-17T00:15:44;33.38;;;22.70;;
80392;SDS011;69719;45.544;10.218;2024-03-17T00:18:12;35.88;;;24.20;;
80392;SDS011;69719;45.544;10.218;2024-03-17T00:20:38;37.17;;;25.05;;
80392;SDS011;69719;45.544;10.218;2024-03-17T00:23:04;36.95;;;26.58;;
80392;SDS011;69719;45.544;10.218;2024-03-17T00:25:31;37.05;;;25.20;;
80392;SDS011;69719;45.544;10.218;2024-03-17T00:27:59;33.80;;;24.10;;
80392;SDS011;69719;45.544;10.218;2024-03-17T00:30:24;30.88;;;21.88;;
80392;SDS011;69719;45.544;10.218;2024-03-17T00:32:50;35.67;;;23.17;;
80392;SDS011;69719;45.544;10.218;2024-03-17T00:35:15;33.92;;;23.65;;
80392;SDS011;69719;45.544;10.218;2024-03-17T00:37:46;39.25;;;27.70;;
80392;SDS011;69719;45.544;10.218;2024-03-17T00:40:15;32.08;;;24.15;;
80392;SDS011;69719;45.544;10.218;2024-03-17T00:42:42;33.88;;;23.35;;
80392;SDS011;69719;45.544;10.218;2024-03-17T00:45:08;35.65;;;24.38;;
80392;SDS011;69719;45.544;10.218;2024-03-17T00:47:35;34.65;;;24.45;;
80392;SDS011;69719;45.544;10.218;2024-03-17T00:50:01;32.67;;;23.65;;
80392;SDS011;69719;45.544;10.218;2024-03-17T00:52:27;31.67;;;22.65;;
80392;SDS011;69719;45.544;10.218;2024-03-17T00:54:52;33.92;;;23.88;;
80392;SDS011;69719;45.544;10.218;2024-03-17T00:57:19;32.80;;;23.60;;
80392;SDS011;69719;45.544;10.218;2024-03-17T00:59:44;37.50;;;25.80;;
80392;SDS011;69719;45.544;10.218;2024-03-17T01:02:13;33.33;;;24.38;;
80392;SDS011;69719;45.544;10.218;2024-03-17T01:04:43;34.65;;;24.13;;
80392;SDS011;69719;45.544;10.218;2024-03-17T01:07:09;31.55;;;22.98;;
80392;SDS011;69719;45.544;10.218;2024-03-17T01:09:35;33.67;;;22.27;;
80392;SDS011;69719;45.544;10.218;2024-03-17T01:12:01;32.63;;;22.67;;
80392;SDS011;69719;45.544;10.218;2024-03-17T01:14:27;32.40;;;23.17;;
80392;SDS011;69719;45.544;10.218;2024-03-17T01:16:54;30.38;;;22.58;;
80392;SDS011;69719;45.544;10.218;2024-03-17T01:19:20;34.08;;;23.17;;
80392;SDS011;69719;45.544;10.218;2024-03-17T01:21:45;31.98;;;22.13;;
80392;SDS011;69719;45.544;10.218;2024-03-17T01:24:11;32.90;;;22.55;;
80392;SDS011;69719;45.544;10.218;2024-03-17T01:26:36;29.65;;;22.20;;
80392;SDS011;69719;45.544;10.218;2024-03-17T01:29:02;31.60;;;23.23;;
80392;SDS011;69719;45.544;10.218;2024-03-17T01:31:28;32.33;;;22.08;;
80392;SDS011;69719;45.544;10.218;2024-03-17T01:33:53;32.78;;;23.83;;
80392;SDS011;69719;45.544;10.218;2024-03-17T01:36:18;31.08;;;23.42;;
80392;SDS011;69719;45.544;10.218;2024-03-17T01:38:44;29.38;;;21.33;;
80392;SDS011;69719;45.544;10.218;2024-03-17T01:41:09;31.27;;;22.52;;
80392;SDS011;69719;45.544;10.218;2024-03-17T01:43:35;35.35;;;23.45;;
80392;SDS011;69719;45.544;10.218;2024-03-17T01:46:00;34.10;;;22.38;;
80392;SDS011;69719;45.544;10.218;2024-03-17T01:48:27;35.13;;;23.27;;
80392;SDS011;69719;45.544;10.218;2024-03-17T01:50:53;35.95;;;24.17;;
80392;SDS011;69719;45.544;10.218;2024-03-17T01:53:21;33.63;;;22.85;;
80392;SDS011;69719;45.544;10.218;2024-03-17T01:55:50;33.10;;;23.92;;
80392;SDS011;69719;45.544;10.218;2024-03-17T01:58:21;32.20;;;22.85;;
80392;SDS011;69719;45.544;10.218;2024-03-17T02:00:50;32.90;;;23.92;;
80392;SDS011;69719;45.544;10.218;2024-03-17T02:03:17;40.38;;;25.25;;
80392;SDS011;69719;45.544;10.218;2024-03-17T02:05:43;63.15;;;24.98;;
80392;SDS011;69719;45.544;10.218;2024-03-17T02:08:09;30.45;;;22.45;;
80392;SDS011;69719;45.544;10.218;2024-03-17T02:10:36;33.95;;;23.15;;
80392;SDS011;69719;45.544;10.218;2024-03-17T02:13:02;35.80;;;24.48;;
80392;SDS011;69719;45.544;10.218;2024-03-17T02:15:28;31.80;;;23.55;;
80392;SDS011;69719;45.544;10.218;2024-03-17T02:17:54;31.70;;;21.83;;
80392;SDS011;69719;45.544;10.218;2024-03-17T02:20:20;31.73;;;23.52;;
80392;SDS011;69719;45.544;10.218;2024-03-17T02:22:49;34.03;;;23.05;;
80392;SDS011;69719;45.544;10.218;2024-03-17T02:25:15;37.45;;;23.17;;
80392;SDS011;69719;45.544;10.218;2024-03-17T02:27:41;37.72;;;23.85;;
80392;SDS011;69719;45.544;10.218;2024-03-17T02:30:06;35.25;;;25.73;;
80392;SDS011;69719;45.544;10.218;2024-03-17T02:32:34;33.90;;;23.23;;
80392;SDS011;69719;45.544;10.218;2024-03-17T02:35:00;32.75;;;23.35;;
80392;SDS011;69719;45.544;10.218;2024-03-17T02:37:26;34.88;;;22.95;;
80392;SDS011;69719;45.544;10.218;2024-03-17T02:39:52;32.53;;;22.88;;
80392;SDS011;69719;45.544;10.218;2024-03-17T02:42:17;34.33;;;24.30;;
80392;SDS011;69719;45.544;10.218;2024-03-17T02:44:43;35.17;;;24.45;;
80392;SDS011;69719;45.544;10.218;2024-03-17T02:47:09;32.58;;;23.67;;
80392;SDS011;69719;45.544;10.218;2024-03-17T02:49:34;31.95;;;24.15;;
80392;SDS011;69719;45.544;10.218;2024-03-17T02:52:09;35.95;;;26.60;;
80392;SDS011;69719;45.544;10.218;2024-03-17T02:54:36;36.20;;;24.20;;
80392;SDS011;69719;45.544;10.218;2024-03-17T02:57:03;32.47;;;23.30;;
80392;SDS011;69719;45.544;10.218;2024-03-17T02:59:29;34.67;;;24.52;;
80392;SDS011;69719;45.544;10.218;2024-03-17T03:01:56;37.53;;;24.98;;
80392;SDS011;69719;45.544;10.218;2024-03-17T03:04:22;38.42;;;25.52;;
80392;SDS011;69719;45.544;10.218;2024-03-17T03:06:47;33.38;;;23.92;;
80392;SDS011;69719;45.544;10.218;2024-03-17T03:09:13;35.72;;;25.45;;
80392;SDS011;69719;45.544;10.218;2024-03-17T03:11:44;35.95;;;25.02;;
80392;SDS011;69719;45.544;10.218;2024-03-17T03:14:09;33.20;;;24.90;;
80392;SDS011;69719;45.544;10.218;2024-03-17T03:16:34;37.17;;;25.70;;
80392;SDS011;69719;45.544;10.218;2024-03-17T03:19:00;32.22;;;24.02;;
80392;SDS011;69719;45.544;10.218;2024-03-17T03:21:25;35.95;;;24.65;;
80392;SDS011;69719;45.544;10.218;2024-03-17T03:23:51;34.83;;;25.27;;
80392;SDS011;69719;45.544;10.218;2024-03-17T03:26:17;33.30;;;23.83;;
80392;SDS011;69719;45.544;10.218;2024-03-17T03:28:43;33.17;;;24.75;;
80392;SDS011;69719;45.544;10.218;2024-03-17T03:31:11;32.20;;;23.95;;
80392;SDS011;69719;45.544;10.218;2024-03-17T03:33:40;34.03;;;24.58;;
80392;SDS011;69719;45.544;10.218;2024-03-17T03:36:07;33.22;;;26.10;;
80392;SDS011;69719;45.544;10.218;2024-03-17T03:38:36;34.38;;;24.40;;
80392;SDS011;69719;45.544;10.218;2024-03-17T03:41:06;33.45;;;25.40;;
80392;SDS011;69719;45.544;10.218;2024-03-17T03:43:34;34.75;;;24.83;;
80392;SDS011;69719;45.544;10.218;2024-03-17T03:46:01;32.83;;;24.92;;
80392;SDS011;69719;45.544;10.218;2024-03-17T03:48:27;35.90;;;24.35;;
80392;SDS011;69719;45.544;10.218;2024-03-17T03:50:53;33.63;;;25.25;;
80392;SDS011;69719;45.544;10.218;2024-03-17T03:53:19;35.03;;;25.70;;
80392;SDS011;69719;45.544;10.218;2024-03-17T03:55:45;36.55;;;25.15;;
80392;SDS011;69719;45.544;10.218;2024-03-17T03:58:10;40.40;;;26.25;;
80392;SDS011;69719;45.544;10.218;2024-03-17T04:00:37;34.58;;;25.55;;
80392;SDS011;69719;45.544;10.218;2024-03-17T04:03:04;34.75;;;24.52;;
80392;SDS011;69719;45.544;10.218;2024-03-17T04:05:30;36.95;;;24.85;;
80392;SDS011;69719;45.544;10.218;2024-03-17T04:07:56;34.75;;;25.35;;
80392;SDS011;69719;45.544;10.218;2024-03-17T04:10:22;35.08;;;25.15;;
80392;SDS011;69719;45.544;10.218;2024-03-17T04:12:49;35.70;;;25.60;;
80392;SDS011;69719;45.544;10.218;2024-03-17T04:15:14;38.75;;;27.15;;
80392;SDS011;69719;45.544;10.218;2024-03-17T04:17:40;37.63;;;26.70;;
80392;SDS011;69719;45.544;10.218;2024-03-17T04:20:07;35.03;;;25.80;;
80392;SDS011;69719;45.544;10.218;2024-03-17T04:22:33;36.13;;;24.52;;
80392;SDS011;69719;45.544;10.218;2024-03-17T04:24:59;35.58;;;26.55;;
80392;SDS011;69719;45.544;10.218;2024-03-17T04:27:24;52.05;;;27.08;;
80392;SDS011;69719;45.544;10.218;2024-03-17T04:29:52;36.92;;;25.15;;
80392;SDS011;69719;45.544;10.218;2024-03-17T04:32:18;38.13;;;26.15;;
80392;SDS011;69719;45.544;10.218;2024-03-17T04:34:44;33.78;;;24.85;;
80392;SDS011;69719;45.544;10.218;2024-03-17T04:37:10;34.70;;;24.05;;
80392;SDS011;69719;45.544;10.218;2024-03-17T04:39:38;38.22;;;25.50;;
80392;SDS011;69719;45.544;10.218;2024-03-17T04:42:08;39.92;;;25.45;;
80392;SDS011;69719;45.544;10.218;2024-03-17T04:44:34;35.25;;;25.83;;
80392;SDS011;69719;45.544;10.218;2024-03-17T04:47:00;34.95;;;25.10;;
80392;SDS011;69719;45.544;10.218;2024-03-17T04:49:25;33.60;;;23.33;;
80392;SDS011;69719;45.544;10.218;2024-03-17T04:51:51;36.10;;;25.58;;
80392;SDS011;69719;45.544;10.218;2024-03-17T04:54:16;36.13;;;24.77;;
80392;SDS011;69719;45.544;10.218;2024-03-17T04:56:42;36.55;;;25.15;;
80392;SDS011;69719;45.544;10.218;2024-03-17T04:59:07;35.95;;;25.35;;
80392;SDS011;69719;45.544;10.218;2024-03-17T05:01:32;38.53;;;26.67;;
80392;SDS011;69719;45.544;10.218;2024-03-17T05:04:02;37.35;;;25.90;;
80392;SDS011;69719;45.544;10.218;2024-03-17T05:06:28;39.50;;;25.52;;
80392;SDS011;69719;45.544;10.218;2024-03-17T05:08:53;35.85;;;26.10;;
80392;SDS011;69719;45.544;10.218;2024-03-17T05:11:19;35.45;;;25.52;;
80392;SDS011;69719;45.544;10.218;2024-03-17T05:13:45;32.65;;;25.88;;
80392;SDS011;69719;45.544;10.218;2024-03-17T05:16:10;34.00;;;24.92;;
80392;SDS011;69719;45.544;10.218;2024-03-17T05:18:36;34.75;;;25.98;;
80392;SDS011;69719;45.544;10.218;2024-03-17T05:21:04;34.05;;;24.60;;
80392;SDS011;69719;45.544;10.218;2024-03-17T05:23:32;33.78;;;24.02;;
80392;SDS011;69719;45.544;10.218;2024-03-17T05:25:59;34.10;;;24.45;;
80392;SDS011;69719;45.544;10.218;2024-03-17T05:28:26;33.42;;;23.23;;
80392;SDS011;69719;45.544;10.218;2024-03-17T05:30:53;33.90;;;24.33;;
80392;SDS011;69719;45.544;10.218;2024-03-17T05:33:19;35.15;;;25.48;;
80392;SDS011;69719;45.544;10.218;2024-03-17T05:38:17;33.00;;;24.65;;
80392;SDS011;69719;45.544;10.218;2024-03-17T05:40:59;36.30;;;24.95;;
80392;SDS011;69719;45.544;10.218;2024-03-17T05:43:33;37.20;;;26.20;;
80392;SDS011;69719;45.544;10.218;2024-03-17T05:46:01;35.35;;;23.67;;
80392;SDS011;69719;45.544;10.218;2024-03-17T05:48:28;34.08;;;25.35;;
80392;SDS011;69719;45.544;10.218;2024-03-17T05:50:57;34.80;;;24.55;;
80392;SDS011;69719;45.544;10.218;2024-03-17T05:53:23;38.65;;;25.38;;
80392;SDS011;69719;45.544;10.218;2024-03-17T05:55:49;36.33;;;25.60;;
80392;SDS011;69719;45.544;10.218;2024-03-17T05:58:15;33.03;;;23.13;;
80392;SDS011;69719;45.544;10.218;2024-03-17T06:00:40;35.00;;;23.80;;
80392;SDS011;69719;45.544;10.218;2024-03-17T06:03:06;31.67;;;22.80;;
80392;SDS011;69719;45.544;10.218;2024-03-17T06:05:32;34.10;;;24.25;;
80392;SDS011;69719;45.544;10.218;2024-03-17T06:07:59;33.20;;;24.35;;
80392;SDS011;69719;45.544;10.218;2024-03-17T06:10:26;34.70;;;24.15;;
80392;SDS011;69719;45.544;10.218;2024-03-17T06:12:52;36.53;;;23.55;;
80392;SDS011;69719;45.544;10.218;2024-03-17T06:15:17;33.83;;;24.15;;
80392;SDS011;69719;45.544;10.218;2024-03-17T06:17:43;34.10;;;24.95;;
80392;SDS011;69719;45.544;10.218;2024-03-17T06:20:08;33.25;;;21.85;;
80392;SDS011;69719;45.544;10.218;2024-03-17T06:22:38;33.00;;;23.70;;
80392;SDS011;69719;45.544;10.218;2024-03-17T06:25:04;32.70;;;23.98;;
80392;SDS011;69719;45.544;10.218;2024-03-17T06:27:30;33.75;;;23.20;;
80392;SDS011;69719;45.544;10.218;2024-03-17T06:29:56;32.20;;;22.85;;
80392;SDS011;69719;45.544;10.218;2024-03-17T06:32:22;31.90;;;23.02;;
80392;SDS011;69719;45.544;10.218;2024-03-17T06:34:47;33.78;;;24.23;;
80392;SDS011;69719;45.544;10.218;2024-03-17T06:37:13;33.47;;;22.30;;
80392;SDS011;69719;45.544;10.218;2024-03-17T06:39:38;36.25;;;23.02;;
80392;SDS011;69719;45.544;10.218;2024-03-17T06:42:04;32.55;;;22.05;;
80392;SDS011;69719;45.544;10.218;2024-03-17T06:44:30;31.08;;;21.77;;
80392;SDS011;69719;45.544;10.218;2024-03-17T06:46:57;30.50;;;21.77;;
80392;SDS011;69719;45.544;10.218;2024-03-17T06:49:23;44.35;;;23.95;;
80392;SDS011;69719;45.544;10.218;2024-03-17T06:51:48;34.90;;;23.02;;
80392;SDS011;69719;45.544;10.218;2024-03-17T06:54:14;34.42;;;22.85;;
80392;SDS011;69719;45.544;10.218;2024-03-17T06:56:39;32.88;;;22.10;;
80392;SDS011;69719;45.544;10.218;2024-03-17T06:59:05;32.50;;;22.05;;
80392;SDS011;69719;45.544;10.218;2024-03-17T07:01:30;35.10;;;22.88;;
80392;SDS011;69719;45.544;10.218;2024-03-17T07:03:56;30.00;;;21.67;;
80392;SDS011;69719;45.544;10.218;2024-03-17T07:06:21;35.15;;;22.65;;
80392;SDS011;69719;45.544;10.218;2024-03-17T07:08:47;31.67;;;22.45;;
80392;SDS011;69719;45.544;10.218;2024-03-17T07:11:12;35.45;;;21.63;;
80392;SDS011;69719;45.544;10.218;2024-03-17T07:13:38;37.45;;;23.20;;
80392;SDS011;69719;45.544;10.218;2024-03-17T07:16:07;35.67;;;22.10;;
80392;SDS011;69719;45.544;10.218;2024-03-17T07:18:33;31.60;;;20.95;;
80392;SDS011;69719;45.544;10.218;2024-03-17T07:21:00;30.63;;;20.98;;
80392;SDS011;69719;45.544;10.218;2024-03-17T07:23:27;29.73;;;20.38;;
80392;SDS011;69719;45.544;10.218;2024-03-17T07:25:56;33.35;;;21.00;;
80392;SDS011;69719;45.544;10.218;2024-03-17T07:28:23;28.67;;;19.52;;
80392;SDS011;69719;45.544;10.218;2024-03-17T07:30:53;31.30;;;21.73;;
80392;SDS011;69719;45.544;10.218;2024-03-17T07:33:20;30.20;;;20.30;;
80392;SDS011;69719;45.544;10.218;2024-03-17T07:35:47;29.90;;;19.88;;
80392;SDS011;69719;45.544;10.218;2024-03-17T07:38:13;30.33;;;21.88;;
80392;SDS011;69719;45.544;10.218;2024-03-17T07:40:39;29.25;;;19.98;;
80392;SDS011;69719;45.544;10.218;2024-03-17T07:43:04;29.85;;;20.20;;
80392;SDS011;69719;45.544;10.218;2024-03-17T07:45:30;28.95;;;20.90;;
80392;SDS011;69719;45.544;10.218;2024-03-17T07:47:55;31.80;;;20.58;;
80392;SDS011;69719;45.544;10.218;2024-03-17T07:50:21;32.20;;;20.45;;
80392;SDS011;69719;45.544;10.218;2024-03-17T07:52:46;29.65;;;20.42;;
80392;SDS011;69719;45.544;10.218;2024-03-17T07:55:12;31.42;;;20.58;;
80392;SDS011;69719;45.544;10.218;2024-03-17T07:57:38;29.58;;;20.73;;
80392;SDS011;69719;45.544;10.218;2024-03-17T08:00:04;36.65;;;22.90;;
80392;SDS011;69719;45.544;10.218;2024-03-17T08:02:34;30.02;;;19.20;;
80392;SDS011;69719;45.544;10.218;2024-03-17T08:05:00;28.80;;;19.85;;
80392;SDS011;69719;45.544;10.218;2024-03-17T08:07:25;31.77;;;21.25;;
80392;SDS011;69719;45.544;10.218;2024-03-17T08:09:51;28.50;;;19.77;;
80392;SDS011;69719;45.544;10.218;2024-03-17T08:12:16;33.63;;;22.50;;
80392;SDS011;69719;45.544;10.218;2024-03-17T08:14:41;32.80;;;18.95;;
80392;SDS011;69719;45.544;10.218;2024-03-17T08:17:08;27.50;;;18.48;;
80392;SDS011;69719;45.544;10.218;2024-03-17T08:19:35;30.15;;;19.70;;
80392;SDS011;69719;45.544;10.218;2024-03-17T08:22:00;30.63;;;20.52;;
80392;SDS011;69719;45.544;10.218;2024-03-17T08:24:25;26.77;;;18.67;;
80392;SDS011;69719;45.544;10.218;2024-03-17T08:26:51;30.90;;;20.35;;
80392;SDS011;69719;45.544;10.218;2024-03-17T08:29:16;30.45;;;19.25;;
80392;SDS011;69719;45.544;10.218;2024-03-17T08:31:42;29.40;;;20.23;;
80392;SDS011;69719;45.544;10.218;2024-03-17T08:34:09;33.15;;;19.65;;
80392;SDS011;69719;45.544;10.218;2024-03-17T08:36:35;34.10;;;21.60;;
80392;SDS011;69719;45.544;10.218;2024-03-17T08:39:01;30.13;;;20.25;;
80392;SDS011;69719;45.544;10.218;2024-03-17T08:41:26;31.60;;;21.13;;
80392;SDS011;69719;45.544;10.218;2024-03-17T08:43:52;35.70;;;22.40;;
80392;SDS011;69719;45.544;10.218;2024-03-17T08:46:17;36.47;;;24.73;;
80392;SDS011;69719;45.544;10.218;2024-03-17T08:48:43;41.85;;;29.65;;
80392;SDS011;69719;45.544;10.218;2024-03-17T08:51:09;37.53;;;29.55;;
80392;SDS011;69719;45.544;10.218;2024-03-17T08:53:35;45.05;;;31.80;;
80392;SDS011;69719;45.544;10.218;2024-03-17T08:56:03;45.72;;;33.60;;
80392;SDS011;69719;45.544;10.218;2024-03-17T08:58:29;46.50;;;32.83;;
80392;SDS011;69719;45.544;10.218;2024-03-17T09:00:55;46.75;;;33.47;;
80392;SDS011;69719;45.544;10.218;2024-03-17T09:03:21;43.75;;;34.45;;
80392;SDS011;69719;45.544;10.218;2024-03-17T09:05:47;47.13;;;33.90;;
80392;SDS011;69719;45.544;10.218;2024-03-17T09:08:20;45.58;;;31.98;;
80392;SDS011;69719;45.544;10.218;2024-03-17T09:10:47;44.20;;;32.25;;
80392;SDS011;69719;45.544;10.218;2024-03-17T09:13:15;44.53;;;32.28;;
80392;SDS011;69719;45.544;10.218;2024-03-17T09:18:30;39.72;;;29.70;;
80392;SDS011;69719;45.544;10.218;2024-03-17T09:21:01;38.75;;;26.33;;
80392;SDS011;69719;45.544;10.218;2024-03-17T09:23:29;34.13;;;23.60;;
80392;SDS011;69719;45.544;10.218;2024-03-17T09:28:25;51.08;;;24.90;;
80392;SDS011;69719;45.544;10.218;2024-03-17T09:30:51;29.83;;;21.95;;
80392;SDS011;69719;45.544;10.218;2024-03-17T09:33:18;30.90;;;20.98;;
80392;SDS011;69719;45.544;10.218;2024-03-17T09:36:00;31.58;;;19.27;;
80392;SDS011;69719;45.544;10.218;2024-03-17T09:38:28;26.70;;;16.55;;
80392;SDS011;69719;45.544;10.218;2024-03-17T09:40:54;29.35;;;18.83;;
80392;SDS011;69719;45.544;10.218;2024-03-17T09:43:26;27.63;;;17.48;;
80392;SDS011;69719;45.544;10.218;2024-03-17T09:45:53;34.08;;;17.98;;
80392;SDS011;69719;45.544;10.218;2024-03-17T09:48:27;27.63;;;17.50;;
80392;SDS011;69719;45.544;10.218;2024-03-17T09:51:00;28.50;;;17.30;;
80392;SDS011;69719;45.544;10.218;2024-03-17T09:56:18;28.27;;;19.38;;
80392;SDS011;69719;45.544;10.218;2024-03-17T09:58:44;29.70;;;17.95;;
80392;SDS011;69719;45.544;10.218;2024-03-17T10:01:10;30.60;;;17.33;;
80392;SDS011;69719;45.544;10.218;2024-03-17T10:03:46;29.40;;;17.92;;
80392;SDS011;69719;45.544;10.218;2024-03-17T10:06:16;28.83;;;17.50;;
80392;SDS011;69719;45.544;10.218;2024-03-17T10:08:43;28.08;;;16.85;;
80392;SDS011;69719;45.544;10.218;2024-03-17T10:11:09;28.33;;;17.45;;
80392;SDS011;69719;45.544;10.218;2024-03-17T10:13:36;30.05;;;17.33;;
80392;SDS011;69719;45.544;10.218;2024-03-17T10:16:02;28.02;;;18.13;;
80392;SDS011;69719;45.544;10.218;2024-03-17T10:18:28;27.10;;;17.92;;
80392;SDS011;69719;45.544;10.218;2024-03-17T10:20:53;29.42;;;18.33;;
80392;SDS011;69719;45.544;10.218;2024-03-17T10:23:22;26.58;;;16.27;;
80392;SDS011;69719;45.544;10.218;2024-03-17T10:25:48;27.33;;;17.77;;
80392;SDS011;69719;45.544;10.218;2024-03-17T10:28:15;27.88;;;17.77;;
80392;SDS011;69719;45.544;10.218;2024-03-17T10:30:42;28.02;;;17.55;;
80392;SDS011;69719;45.544;10.218;2024-03-17T10:33:22;26.33;;;17.23;;
80392;SDS011;69719;45.544;10.218;2024-03-17T10:35:50;26.05;;;17.23;;
80392;SDS011;69719;45.544;10.218;2024-03-17T10:38:22;27.48;;;18.13;;
80392;SDS011;69719;45.544;10.218;2024-03-17T10:40:48;26.98;;;18.35;;
80392;SDS011;69719;45.544;10.218;2024-03-17T10:43:13;26.92;;;17.15;;
80392;SDS011;69719;45.544;10.218;2024-03-17T10:45:38;28.80;;;18.55;;
80392;SDS011;69719;45.544;10.218;2024-03-17T10:48:07;26.98;;;17.20;;
80392;SDS011;69719;45.544;10.218;2024-03-17T10:50:35;28.75;;;17.35;;
80392;SDS011;69719;45.544;10.218;2024-03-17T10:53:05;29.60;;;16.95;;
80392;SDS011;69719;45.544;10.218;2024-03-17T10:55:43;29.70;;;17.38;;
80392;SDS011;69719;45.544;10.218;2024-03-17T11:00:58;26.73;;;18.45;;
80392;SDS011;69719;45.544;10.218;2024-03-17T11:03:28;27.52;;;19.67;;
80392;SDS011;69719;45.544;10.218;2024-03-17T11:05:56;26.05;;;17.65;;
80392;SDS011;69719;45.544;10.218;2024-03-17T11:08:23;30.45;;;20.30;;
80392;SDS011;69719;45.544;10.218;2024-03-17T11:10:50;28.13;;;18.70;;
80392;SDS011;69719;45.544;10.218;2024-03-17T11:13:23;27.30;;;18.48;;
80392;SDS011;69719;45.544;10.218;2024-03-17T11:15:53;27.65;;;18.85;;
80392;SDS011;69719;45.544;10.218;2024-03-17T11:20:59;30.83;;;19.88;;
80392;SDS011;69719;45.544;10.218;2024-03-17T11:23:33;29.33;;;19.38;;
80392;SDS011;69719;45.544;10.218;2024-03-17T11:25:59;29.38;;;18.98;;
80392;SDS011;69719;45.544;10.218;2024-03-17T11:36:56;27.98;;;19.88;;
80392;SDS011;69719;45.544;10.218;2024-03-17T11:42:22;29.67;;;19.05;;
80392;SDS011;69719;45.544;10.218;2024-03-17T11:44:55;26.42;;;18.02;;
80392;SDS011;69719;45.544;10.218;2024-03-17T11:47:41;27.98;;;18.35;;
80392;SDS011;69719;45.544;10.218;2024-03-17T11:50:08;28.13;;;19.00;;
80392;SDS011;69719;45.544;10.218;2024-03-17T11:52:35;27.63;;;18.67;;
80392;SDS011;69719;45.544;10.218;2024-03-17T11:55:01;28.95;;;19.38;;
80392;SDS011;69719;45.544;10.218;2024-03-17T11:57:27;29.13;;;19.52;;
80392;SDS011;69719;45.544;10.218;2024-03-17T11:59:55;29.95;;;19.17;;
80392;SDS011;69719;45.544;10.218;2024-03-17T12:02:23;29.33;;;18.33;;
80392;SDS011;69719;45.544;10.218;2024-03-17T12:04:56;28.42;;;18.95;;
80392;SDS011;69719;45.544;10.218;2024-03-17T12:07:23;27.38;;;18.58;;
80392;SDS011;69719;45.544;10.218;2024-03-17T12:09:49;29.02;;;18.55;;
80392;SDS011;69719;45.544;10.218;2024-03-17T12:15:00;30.35;;;18.90;;
80392;SDS011;69719;45.544;10.218;2024-03-17T12:17:27;25.70;;;17.05;;
80392;SDS011;69719;45.544;10.218;2024-03-17T12:19:53;29.77;;;18.95;;
80392;SDS011;69719;45.544;10.218;2024-03-17T12:22:21;29.75;;;19.27;;
80392;SDS011;69719;45.544;10.218;2024-03-17T12:24:48;30.70;;;20.20;;
80392;SDS011;69719;45.544;10.218;2024-03-17T12:27:16;28.70;;;19.90;;
80392;SDS011;69719;45.544;10.218;2024-03-17T12:29:43;26.38;;;17.60;;
80392;SDS011;69719;45.544;10.218;2024-03-17T12:34:35;27.40;;;18.42;;
80392;SDS011;69719;45.544;10.218;2024-03-17T12:37:01;28.73;;;18.70;;
80392;SDS011;69719;45.544;10.218;2024-03-17T12:39:28;26.77;;;18.85;;
80392;SDS011;69719;45.544;10.218;2024-03-17T12:44:58;26.73;;;16.85;;
80392;SDS011;69719;45.544;10.218;2024-03-17T12:47:29;32.35;;;18.92;;
80392;SDS011;69719;45.544;10.218;2024-03-17T12:49:57;29.95;;;19.05;;
80392;SDS011;69719;45.544;10.218;2024-03-17T12:52:28;28.98;;;19.15;;
80392;SDS011;69719;45.544;10.218;2024-03-17T12:57:41;29.60;;;18.60;;
80392;SDS011;69719;45.544;10.218;2024-03-17T13:00:27;25.88;;;17.08;;
80392;SDS011;69719;45.544;10.218;2024-03-17T13:02:58;28.67;;;18.45;;
80392;SDS011;69719;45.544;10.218;2024-03-17T13:05:24;30.58;;;18.15;;
80392;SDS011;69719;45.544;10.218;2024-03-17T13:07:50;29.02;;;18.65;;
80392;SDS011;69719;45.544;10.218;2024-03-17T13:10:16;32.42;;;19.45;;
80392;SDS011;69719;45.544;10.218;2024-03-17T13:12:43;25.92;;;17.52;;
80392;SDS011;69719;45.544;10.218;2024-03-17T13:15:16;25.35;;;17.40;;
80392;SDS011;69719;45.544;10.218;2024-03-17T13:17:43;32.28;;;19.02;;
80392;SDS011;69719;45.544;10.218;2024-03-17T13:20:15;25.02;;;17.73;;
80392;SDS011;69719;45.544;10.218;2024-03-17T13:22:42;30.20;;;19.00;;
80392;SDS011;69719;45.544;10.218;2024-03-17T13:25:28;24.75;;;16.85;;
80392;SDS011;69719;45.544;10.218;2024-03-17T13:28:00;26.33;;;17.30;;
80392;SDS011;69719;45.544;10.218;2024-03-17T13:30:26;27.88;;;18.27;;
80392;SDS011;69719;45.544;10.218;2024-03-17T13:32:53;28.75;;;17.42;;
80392;SDS011;69719;45.544;10.218;2024-03-17T13:35:26;28.00;;;19.00;;
80392;SDS011;69719;45.544;10.218;2024-03-17T13:37:53;29.23;;;18.25;;
80392;SDS011;69719;45.544;10.218;2024-03-17T13:40:20;29.92;;;18.70;;
80392;SDS011;69719;45.544;10.218;2024-03-17T13:42:47;28.58;;;18.00;;
80392;SDS011;69719;45.544;10.218;2024-03-17T13:45:17;25.80;;;17.83;;
80392;SDS011;69719;45.544;10.218;2024-03-17T13:47:56;30.30;;;18.02;;
80392;SDS011;69719;45.544;10.218;2024-03-17T13:50:23;24.60;;;16.50;;
80392;SDS011;69719;45.544;10.218;2024-03-17T13:52:49;27.58;;;18.42;;
80392;SDS011;69719;45.544;10.218;2024-03-17T13:55:21;27.58;;;17.60;;
80392;SDS011;69719;45.544;10.218;2024-03-17T13:57:50;22.73;;;15.45;;
80392;SDS011;69719;45.544;10.218;2024-03-17T14:00:16;26.80;;;17.65;;
80392;SDS011;69719;45.544;10.218;2024-03-17T14:02:44;28.10;;;18.00;;
80392;SDS011;69719;45.544;10.218;2024-03-17T14:05:14;28.63;;;18.15;;
80392;SDS011;69719;45.544;10.218;2024-03-17T14:07:42;28.77;;;17.15;;
80392;SDS011;69719;45.544;10.218;2024-03-17T14:10:08;30.67;;;18.60;;
80392;SDS011;69719;45.544;10.218;2024-03-17T14:12:38;27.92;;;18.90;;
80392;SDS011;69719;45.544;10.218;2024-03-17T14:15:10;29.70;;;19.52;;
80392;SDS011;69719;45.544;10.218;2024-03-17T14:17:37;27.90;;;19.45;;
80392;SDS011;69719;45.544;10.218;2024-03-17T14:20:06;30.70;;;20.40;;
80392;SDS011;69719;45.544;10.218;2024-03-17T14:22:39;31.42;;;20.33;;
80392;SDS011;69719;45.544;10.218;2024-03-17T14:25:08;27.40;;;18.42;;
80392;SDS011;69719;45.544;10.218;2024-03-17T14:27:36;26.27;;;18.27;;
80392;SDS011;69719;45.544;10.218;2024-03-17T14:30:02;29.38;;;19.55;;
80392;SDS011;69719;45.544;10.218;2024-03-17T14:32:29;31.02;;;17.88;;
80392;SDS011;69719;45.544;10.218;2024-03-17T14:34:55;30.00;;;18.50;;
80392;SDS011;69719;45.544;10.218;2024-03-17T14:37:20;33.25;;;19.05;;
80392;SDS011;69719;45.544;10.218;2024-03-17T14:39:47;28.48;;;18.30;;
80392;SDS011;69719;45.544;10.218;2024-03-17T14:42:13;26.00;;;18.17;;
80392;SDS011;69719;45.544;10.218;2024-03-17T14:44:38;25.60;;;18.77;;
80392;SDS011;69719;45.544;10.218;2024-03-17T14:47:04;31.23;;;19.27;;